Southport, Florida
Current Conditions -  °F | °C
As of 8:53 AM on Thursday 23 Oct 2014 (Local Time) from KECP Reporting Station
Clear Clear  
Wind Chill: 59°   Ceiling: Unl
Heat Index: 59°   Visibility: 10mi
Dew Point: 49°   Wind: 8mph
Humidity: 69%   Direction: 30°NNE
Pressure: 30.1"   Gusts: NA
Location:  30.3555°N, 85.7317°W
Report Text: KECP 231353Z 03007KT 10SM CLR 15/09 A3010 RMK AO2 SLP204 T01500094
Loading
Personal Weather Stations






























Interactive Weather Map
Tropical Storm Tracking
New forecast layout! Learn more

10-Day Weather Forecast

Advertisements
Track Severe Weather on mobile